sensor_id;sensor_type;location;lat;lon;timestamp;P1;durP1;ratioP1;P2;durP2;ratioP2
57107;SDS011;42987;52.916;6.542;2023-04-03T00:01:36;2.33;;;1.20;;
57107;SDS011;42987;52.916;6.542;2023-04-03T00:04:04;4.07;;;1.30;;
57107;SDS011;42987;52.916;6.542;2023-04-03T00:06:30;3.10;;;1.20;;
57107;SDS011;42987;52.916;6.542;2023-04-03T00:08:57;2.90;;;1.30;;
57107;SDS011;42987;52.916;6.542;2023-04-03T00:11:23;3.23;;;1.30;;
57107;SDS011;42987;52.916;6.542;2023-04-03T00:13:48;3.00;;;1.20;;
57107;SDS011;42987;52.916;6.542;2023-04-03T00:16:14;3.30;;;1.00;;
57107;SDS011;42987;52.916;6.542;2023-04-03T00:18:40;3.03;;;1.47;;
57107;SDS011;42987;52.916;6.542;2023-04-03T00:21:07;3.50;;;1.30;;
57107;SDS011;42987;52.916;6.542;2023-04-03T00:23:34;2.87;;;1.00;;
57107;SDS011;42987;52.916;6.542;2023-04-03T00:26:00;3.50;;;1.20;;
57107;SDS011;42987;52.916;6.542;2023-04-03T00:28:26;2.83;;;1.10;;
57107;SDS011;42987;52.916;6.542;2023-04-03T00:30:52;2.77;;;1.30;;
57107;SDS011;42987;52.916;6.542;2023-04-03T00:33:18;3.70;;;1.33;;
57107;SDS011;42987;52.916;6.542;2023-04-03T00:35:46;2.70;;;1.30;;
57107;SDS011;42987;52.916;6.542;2023-04-03T00:38:13;3.70;;;1.30;;
57107;SDS011;42987;52.916;6.542;2023-04-03T00:40:42;4.30;;;1.30;;
57107;SDS011;42987;52.916;6.542;2023-04-03T00:45:50;2.83;;;1.10;;
57107;SDS011;42987;52.916;6.542;2023-04-03T00:51:05;3.60;;;1.70;;
57107;SDS011;42987;52.916;6.542;2023-04-03T00:53:35;2.40;;;1.42;;
57107;SDS011;42987;52.916;6.542;2023-04-03T00:56:06;2.40;;;1.10;;
57107;SDS011;42987;52.916;6.542;2023-04-03T00:58:53;2.95;;;1.27;;
57107;SDS011;42987;52.916;6.542;2023-04-03T01:01:24;4.00;;;1.30;;
57107;SDS011;42987;52.916;6.542;2023-04-03T01:03:51;3.80;;;1.43;;
57107;SDS011;42987;52.916;6.542;2023-04-03T01:06:19;3.13;;;1.17;;
57107;SDS011;42987;52.916;6.542;2023-04-03T01:08:49;4.10;;;1.30;;
57107;SDS011;42987;52.916;6.542;2023-04-03T01:11:16;4.07;;;1.57;;
57107;SDS011;42987;52.916;6.542;2023-04-03T01:13:42;3.20;;;1.37;;
57107;SDS011;42987;52.916;6.542;2023-04-03T01:16:08;4.03;;;1.40;;
57107;SDS011;42987;52.916;6.542;2023-04-03T01:18:35;4.20;;;1.40;;
57107;SDS011;42987;52.916;6.542;2023-04-03T01:26:39;4.70;;;1.50;;
57107;SDS011;42987;52.916;6.542;2023-04-03T01:29:05;4.67;;;1.50;;
57107;SDS011;42987;52.916;6.542;2023-04-03T01:31:38;3.00;;;1.30;;
57107;SDS011;42987;52.916;6.542;2023-04-03T01:34:20;4.10;;;1.37;;
57107;SDS011;42987;52.916;6.542;2023-04-03T01:36:46;4.33;;;1.63;;
57107;SDS011;42987;52.916;6.542;2023-04-03T01:39:12;5.80;;;1.67;;
57107;SDS011;42987;52.916;6.542;2023-04-03T01:41:38;4.63;;;1.60;;
57107;SDS011;42987;52.916;6.542;2023-04-03T01:44:04;3.70;;;1.57;;
57107;SDS011;42987;52.916;6.542;2023-04-03T01:46:30;3.07;;;1.40;;
57107;SDS011;42987;52.916;6.542;2023-04-03T01:49:02;4.40;;;1.60;;
57107;SDS011;42987;52.916;6.542;2023-04-03T01:51:29;4.20;;;1.73;;
57107;SDS011;42987;52.916;6.542;2023-04-03T01:53:55;3.80;;;1.40;;
57107;SDS011;42987;52.916;6.542;2023-04-03T01:56:21;5.23;;;1.57;;
57107;SDS011;42987;52.916;6.542;2023-04-03T01:58:47;6.87;;;2.43;;
57107;SDS011;42987;52.916;6.542;2023-04-03T02:01:13;4.27;;;1.77;;
57107;SDS011;42987;52.916;6.542;2023-04-03T02:03:40;3.80;;;1.53;;
57107;SDS011;42987;52.916;6.542;2023-04-03T02:06:06;5.00;;;1.57;;
57107;SDS011;42987;52.916;6.542;2023-04-03T02:08:32;3.30;;;1.70;;
57107;SDS011;42987;52.916;6.542;2023-04-03T02:10:57;4.03;;;1.50;;
57107;SDS011;42987;52.916;6.542;2023-04-03T02:13:23;4.63;;;1.70;;
57107;SDS011;42987;52.916;6.542;2023-04-03T02:15:49;5.67;;;1.80;;
57107;SDS011;42987;52.916;6.542;2023-04-03T02:18:15;3.23;;;1.40;;
57107;SDS011;42987;52.916;6.542;2023-04-03T02:20:41;3.80;;;1.80;;
57107;SDS011;42987;52.916;6.542;2023-04-03T02:23:07;3.93;;;1.80;;
57107;SDS011;42987;52.916;6.542;2023-04-03T02:25:33;4.43;;;1.80;;
57107;SDS011;42987;52.916;6.542;2023-04-03T02:28:05;4.60;;;1.80;;
57107;SDS011;42987;52.916;6.542;2023-04-03T02:30:33;4.30;;;1.80;;
57107;SDS011;42987;52.916;6.542;2023-04-03T02:32:59;6.40;;;1.70;;
57107;SDS011;42987;52.916;6.542;2023-04-03T02:35:25;6.40;;;1.80;;
57107;SDS011;42987;52.916;6.542;2023-04-03T02:37:51;5.43;;;1.90;;
57107;SDS011;42987;52.916;6.542;2023-04-03T02:40:17;3.43;;;1.73;;
57107;SDS011;42987;52.916;6.542;2023-04-03T02:42:43;4.73;;;1.87;;
57107;SDS011;42987;52.916;6.542;2023-04-03T02:45:10;4.67;;;1.90;;
57107;SDS011;42987;52.916;6.542;2023-04-03T02:47:36;5.03;;;2.00;;
57107;SDS011;42987;52.916;6.542;2023-04-03T02:50:01;7.57;;;2.17;;
57107;SDS011;42987;52.916;6.542;2023-04-03T02:52:27;5.63;;;2.00;;
57107;SDS011;42987;52.916;6.542;2023-04-03T02:54:53;4.20;;;1.87;;
57107;SDS011;42987;52.916;6.542;2023-04-03T02:57:19;4.53;;;2.10;;
57107;SDS011;42987;52.916;6.542;2023-04-03T02:59:45;4.63;;;1.83;;
57107;SDS011;42987;52.916;6.542;2023-04-03T03:02:11;5.47;;;2.10;;
57107;SDS011;42987;52.916;6.542;2023-04-03T03:04:40;3.83;;;1.80;;
57107;SDS011;42987;52.916;6.542;2023-04-03T03:07:05;4.73;;;1.80;;
57107;SDS011;42987;52.916;6.542;2023-04-03T03:09:31;5.27;;;2.20;;
57107;SDS011;42987;52.916;6.542;2023-04-03T03:11:57;5.10;;;1.83;;
57107;SDS011;42987;52.916;6.542;2023-04-03T03:14:23;5.53;;;2.50;;
57107;SDS011;42987;52.916;6.542;2023-04-03T03:16:49;5.23;;;2.10;;
57107;SDS011;42987;52.916;6.542;2023-04-03T03:19:15;5.07;;;2.37;;
57107;SDS011;42987;52.916;6.542;2023-04-03T03:21:41;7.83;;;2.23;;
57107;SDS011;42987;52.916;6.542;2023-04-03T03:24:07;7.40;;;2.70;;
57107;SDS011;42987;52.916;6.542;2023-04-03T03:26:33;5.73;;;2.00;;
57107;SDS011;42987;52.916;6.542;2023-04-03T03:28:59;6.03;;;2.03;;
57107;SDS011;42987;52.916;6.542;2023-04-03T03:31:25;5.47;;;2.30;;
57107;SDS011;42987;52.916;6.542;2023-04-03T03:33:51;7.17;;;2.67;;
57107;SDS011;42987;52.916;6.542;2023-04-03T03:36:16;6.60;;;2.53;;
57107;SDS011;42987;52.916;6.542;2023-04-03T03:38:42;6.70;;;2.80;;
57107;SDS011;42987;52.916;6.542;2023-04-03T03:41:08;4.93;;;2.50;;
57107;SDS011;42987;52.916;6.542;2023-04-03T03:43:35;6.13;;;2.77;;
57107;SDS011;42987;52.916;6.542;2023-04-03T03:46:01;6.60;;;2.40;;
57107;SDS011;42987;52.916;6.542;2023-04-03T03:48:26;6.20;;;2.40;;
57107;SDS011;42987;52.916;6.542;2023-04-03T03:50:52;6.40;;;2.50;;
57107;SDS011;42987;52.916;6.542;2023-04-03T03:53:18;6.53;;;2.43;;
57107;SDS011;42987;52.916;6.542;2023-04-03T03:55:44;6.27;;;2.60;;
57107;SDS011;42987;52.916;6.542;2023-04-03T03:58:10;4.90;;;2.33;;
57107;SDS011;42987;52.916;6.542;2023-04-03T04:00:35;6.27;;;2.73;;
57107;SDS011;42987;52.916;6.542;2023-04-03T04:03:01;5.53;;;2.10;;
57107;SDS011;42987;52.916;6.542;2023-04-03T04:05:27;5.90;;;2.50;;
57107;SDS011;42987;52.916;6.542;2023-04-03T04:07:53;5.17;;;2.50;;
57107;SDS011;42987;52.916;6.542;2023-04-03T04:10:19;4.87;;;2.77;;
57107;SDS011;42987;52.916;6.542;2023-04-03T04:12:45;6.67;;;2.77;;
57107;SDS011;42987;52.916;6.542;2023-04-03T04:15:11;7.23;;;3.30;;
57107;SDS011;42987;52.916;6.542;2023-04-03T04:17:36;7.27;;;2.97;;
57107;SDS011;42987;52.916;6.542;2023-04-03T04:20:03;6.20;;;2.90;;
57107;SDS011;42987;52.916;6.542;2023-04-03T04:22:30;7.23;;;3.30;;
57107;SDS011;42987;52.916;6.542;2023-04-03T04:24:56;6.43;;;3.00;;
57107;SDS011;42987;52.916;6.542;2023-04-03T04:27:21;4.67;;;2.73;;
57107;SDS011;42987;52.916;6.542;2023-04-03T04:29:50;8.03;;;3.60;;
57107;SDS011;42987;52.916;6.542;2023-04-03T04:32:16;8.20;;;4.07;;
57107;SDS011;42987;52.916;6.542;2023-04-03T04:34:42;7.40;;;3.90;;
57107;SDS011;42987;52.916;6.542;2023-04-03T04:37:07;9.60;;;4.10;;
57107;SDS011;42987;52.916;6.542;2023-04-03T04:39:33;9.63;;;3.93;;
57107;SDS011;42987;52.916;6.542;2023-04-03T04:42:02;7.60;;;3.50;;
57107;SDS011;42987;52.916;6.542;2023-04-03T04:44:28;7.30;;;3.93;;
57107;SDS011;42987;52.916;6.542;2023-04-03T04:46:57;8.80;;;3.93;;
57107;SDS011;42987;52.916;6.542;2023-04-03T04:49:22;6.40;;;3.73;;
57107;SDS011;42987;52.916;6.542;2023-04-03T04:51:48;6.33;;;3.77;;
57107;SDS011;42987;52.916;6.542;2023-04-03T04:54:14;7.30;;;3.97;;
57107;SDS011;42987;52.916;6.542;2023-04-03T04:56:39;8.97;;;4.27;;
57107;SDS011;42987;52.916;6.542;2023-04-03T04:59:05;9.77;;;3.93;;
57107;SDS011;42987;52.916;6.542;2023-04-03T05:01:31;7.43;;;4.60;;
57107;SDS011;42987;52.916;6.542;2023-04-03T05:03:57;10.43;;;4.57;;
57107;SDS011;42987;52.916;6.542;2023-04-03T05:06:23;7.30;;;4.37;;
57107;SDS011;42987;52.916;6.542;2023-04-03T05:08:48;8.67;;;4.20;;
57107;SDS011;42987;52.916;6.542;2023-04-03T05:11:14;9.30;;;4.10;;
57107;SDS011;42987;52.916;6.542;2023-04-03T05:13:40;8.60;;;4.50;;
57107;SDS011;42987;52.916;6.542;2023-04-03T05:16:06;9.17;;;4.07;;
57107;SDS011;42987;52.916;6.542;2023-04-03T05:18:31;7.97;;;4.40;;
57107;SDS011;42987;52.916;6.542;2023-04-03T05:20:57;10.63;;;4.60;;
57107;SDS011;42987;52.916;6.542;2023-04-03T05:23:23;8.47;;;4.43;;
57107;SDS011;42987;52.916;6.542;2023-04-03T05:25:49;8.73;;;4.27;;
57107;SDS011;42987;52.916;6.542;2023-04-03T05:28:15;8.53;;;4.30;;
57107;SDS011;42987;52.916;6.542;2023-04-03T05:30:41;7.90;;;3.77;;
57107;SDS011;42987;52.916;6.542;2023-04-03T05:33:07;8.77;;;4.13;;
57107;SDS011;42987;52.916;6.542;2023-04-03T05:35:35;9.50;;;4.57;;
57107;SDS011;42987;52.916;6.542;2023-04-03T05:38:04;9.03;;;4.07;;
57107;SDS011;42987;52.916;6.542;2023-04-03T05:40:30;8.33;;;4.63;;
57107;SDS011;42987;52.916;6.542;2023-04-03T05:43:02;9.53;;;4.80;;
57107;SDS011;42987;52.916;6.542;2023-04-03T05:45:28;7.87;;;4.00;;
57107;SDS011;42987;52.916;6.542;2023-04-03T05:48:03;9.03;;;4.80;;
57107;SDS011;42987;52.916;6.542;2023-04-03T05:50:32;9.23;;;4.27;;
57107;SDS011;42987;52.916;6.542;2023-04-03T05:52:58;6.83;;;4.20;;
57107;SDS011;42987;52.916;6.542;2023-04-03T05:55:27;7.23;;;4.27;;
57107;SDS011;42987;52.916;6.542;2023-04-03T05:57:53;9.57;;;4.50;;
57107;SDS011;42987;52.916;6.542;2023-04-03T06:00:19;9.80;;;5.03;;
57107;SDS011;42987;52.916;6.542;2023-04-03T06:02:44;11.10;;;4.60;;
57107;SDS011;42987;52.916;6.542;2023-04-03T06:05:10;8.33;;;4.60;;
57107;SDS011;42987;52.916;6.542;2023-04-03T06:07:39;8.67;;;4.47;;
57107;SDS011;42987;52.916;6.542;2023-04-03T06:10:05;9.23;;;4.30;;
57107;SDS011;42987;52.916;6.542;2023-04-03T06:12:32;9.77;;;6.33;;
57107;SDS011;42987;52.916;6.542;2023-04-03T06:14:57;7.30;;;4.27;;
57107;SDS011;42987;52.916;6.542;2023-04-03T06:17:23;9.07;;;4.30;;
57107;SDS011;42987;52.916;6.542;2023-04-03T06:19:49;8.07;;;4.90;;
57107;SDS011;42987;52.916;6.542;2023-04-03T06:22:15;8.13;;;3.93;;
57107;SDS011;42987;52.916;6.542;2023-04-03T06:24:41;8.93;;;4.43;;
57107;SDS011;42987;52.916;6.542;2023-04-03T06:27:09;9.57;;;5.13;;
57107;SDS011;42987;52.916;6.542;2023-04-03T06:29:36;7.83;;;4.30;;
57107;SDS011;42987;52.916;6.542;2023-04-03T06:32:02;9.80;;;4.10;;
57107;SDS011;42987;52.916;6.542;2023-04-03T06:34:28;9.33;;;4.00;;
57107;SDS011;42987;52.916;6.542;2023-04-03T06:36:53;7.70;;;4.00;;
57107;SDS011;42987;52.916;6.542;2023-04-03T06:39:21;7.93;;;3.80;;
57107;SDS011;42987;52.916;6.542;2023-04-03T06:41:50;8.50;;;4.63;;
57107;SDS011;42987;52.916;6.542;2023-04-03T06:44:16;10.50;;;4.50;;
57107;SDS011;42987;52.916;6.542;2023-04-03T06:46:43;10.67;;;4.40;;
57107;SDS011;42987;52.916;6.542;2023-04-03T06:49:10;8.70;;;3.37;;
57107;SDS011;42987;52.916;6.542;2023-04-03T06:51:36;7.80;;;3.37;;
57107;SDS011;42987;52.916;6.542;2023-04-03T06:54:03;9.87;;;3.47;;
57107;SDS011;42987;52.916;6.542;2023-04-03T06:56:30;8.53;;;3.37;;
57107;SDS011;42987;52.916;6.542;2023-04-03T06:58:56;9.43;;;3.50;;
57107;SDS011;42987;52.916;6.542;2023-04-03T07:01:26;8.63;;;3.70;;
57107;SDS011;42987;52.916;6.542;2023-04-03T07:03:53;6.20;;;2.77;;
57107;SDS011;42987;52.916;6.542;2023-04-03T07:06:19;8.90;;;2.87;;
57107;SDS011;42987;52.916;6.542;2023-04-03T07:08:45;7.77;;;3.30;;
57107;SDS011;42987;52.916;6.542;2023-04-03T07:11:16;9.37;;;3.93;;
57107;SDS011;42987;52.916;6.542;2023-04-03T07:13:42;5.67;;;3.00;;
57107;SDS011;42987;52.916;6.542;2023-04-03T07:16:08;9.40;;;3.23;;
57107;SDS011;42987;52.916;6.542;2023-04-03T07:18:34;6.57;;;2.97;;
57107;SDS011;42987;52.916;6.542;2023-04-03T07:21:00;6.90;;;2.77;;
57107;SDS011;42987;52.916;6.542;2023-04-03T07:23:27;5.90;;;2.70;;
57107;SDS011;42987;52.916;6.542;2023-04-03T07:25:56;6.30;;;2.63;;
57107;SDS011;42987;52.916;6.542;2023-04-03T07:28:22;7.50;;;2.83;;
57107;SDS011;42987;52.916;6.542;2023-04-03T07:30:49;8.03;;;3.20;;
57107;SDS011;42987;52.916;6.542;2023-04-03T07:33:17;6.97;;;2.47;;
57107;SDS011;42987;52.916;6.542;2023-04-03T07:35:44;6.67;;;2.87;;
57107;SDS011;42987;52.916;6.542;2023-04-03T07:38:13;5.95;;;2.53;;
57107;SDS011;42987;52.916;6.542;2023-04-03T07:40:39;5.97;;;2.30;;
57107;SDS011;42987;52.916;6.542;2023-04-03T07:43:10;5.63;;;2.30;;
57107;SDS011;42987;52.916;6.542;2023-04-03T07:45:36;5.85;;;2.13;;
57107;SDS011;42987;52.916;6.542;2023-04-03T07:48:02;6.28;;;2.67;;
57107;SDS011;42987;52.916;6.542;2023-04-03T07:50:31;6.93;;;2.30;;
57107;SDS011;42987;52.916;6.542;2023-04-03T07:53:01;7.05;;;2.45;;
57107;SDS011;42987;52.916;6.542;2023-04-03T07:55:28;4.95;;;2.05;;
57107;SDS011;42987;52.916;6.542;2023-04-03T07:57:53;5.78;;;2.33;;
57107;SDS011;42987;52.916;6.542;2023-04-03T08:00:20;6.28;;;2.45;;
57107;SDS011;42987;52.916;6.542;2023-04-03T08:02:46;7.65;;;2.22;;
57107;SDS011;42987;52.916;6.542;2023-04-03T08:05:19;5.63;;;2.00;;
57107;SDS011;42987;52.916;6.542;2023-04-03T08:07:46;5.47;;;1.85;;
57107;SDS011;42987;52.916;6.542;2023-04-03T08:10:12;5.97;;;2.10;;
57107;SDS011;42987;52.916;6.542;2023-04-03T08:12:39;6.82;;;2.08;;
57107;SDS011;42987;52.916;6.542;2023-04-03T08:15:05;6.10;;;2.00;;
57107;SDS011;42987;52.916;6.542;2023-04-03T08:17:33;4.70;;;1.50;;
57107;SDS011;42987;52.916;6.542;2023-04-03T08:19:59;6.55;;;1.95;;
57107;SDS011;42987;52.916;6.542;2023-04-03T08:22:26;5.22;;;2.20;;
57107;SDS011;42987;52.916;6.542;2023-04-03T08:24:55;4.95;;;1.77;;
57107;SDS011;42987;52.916;6.542;2023-04-03T08:27:20;4.80;;;1.92;;
57107;SDS011;42987;52.916;6.542;2023-04-03T08:29:47;8.25;;;2.03;;
57107;SDS011;42987;52.916;6.542;2023-04-03T08:32:12;4.15;;;1.40;;
57107;SDS011;42987;52.916;6.542;2023-04-03T08:34:38;4.75;;;1.60;;
57107;SDS011;42987;52.916;6.542;2023-04-03T08:37:04;3.60;;;1.40;;
57107;SDS011;42987;52.916;6.542;2023-04-03T08:39:31;4.93;;;1.63;;
57107;SDS011;42987;52.916;6.542;2023-04-03T08:41:57;5.45;;;1.65;;
57107;SDS011;42987;52.916;6.542;2023-04-03T08:50:17;5.03;;;1.88;;
57107;SDS011;42987;52.916;6.542;2023-04-03T08:52:54;4.57;;;1.77;;
57107;SDS011;42987;52.916;6.542;2023-04-03T08:55:29;4.85;;;1.48;;
57107;SDS011;42987;52.916;6.542;2023-04-03T08:58:03;2.23;;;1.10;;
57107;SDS011;42987;52.916;6.542;2023-04-03T09:03:21;4.00;;;1.00;;
57107;SDS011;42987;52.916;6.542;2023-04-03T09:05:52;3.08;;;1.00;;
57107;SDS011;42987;52.916;6.542;2023-04-03T09:13:59;3.65;;;1.30;;
57107;SDS011;42987;52.916;6.542;2023-04-03T09:21:57;4.65;;;1.80;;
57107;SDS011;42987;52.916;6.542;2023-04-03T09:24:27;1.98;;;0.70;;
57107;SDS011;42987;52.916;6.542;2023-04-03T09:27:10;3.38;;;1.30;;
57107;SDS011;42987;52.916;6.542;2023-04-03T09:29:41;2.58;;;0.70;;
57107;SDS011;42987;52.916;6.542;2023-04-03T09:34:59;2.22;;;0.77;;
57107;SDS011;42987;52.916;6.542;2023-04-03T09:37:36;2.10;;;0.80;;
57107;SDS011;42987;52.916;6.542;2023-04-03T09:40:47;5.93;;;1.00;;
57107;SDS011;42987;52.916;6.542;2023-04-03T09:42:56;2.55;;;0.93;;
57107;SDS011;42987;52.916;6.542;2023-04-03T09:45:27;3.25;;;0.98;;
57107;SDS011;42987;52.916;6.542;2023-04-03T09:48:07;4.15;;;1.33;;
57107;SDS011;42987;52.916;6.542;2023-04-03T09:50:34;2.22;;;0.77;;
57107;SDS011;42987;52.916;6.542;2023-04-03T09:53:04;3.55;;;0.98;;
57107;SDS011;42987;52.916;6.542;2023-04-03T09:55:50;3.33;;;1.17;;
57107;SDS011;42987;52.916;6.542;2023-04-03T09:58:23;2.25;;;0.98;;
57107;SDS011;42987;52.916;6.542;2023-04-03T10:01:02;3.05;;;0.93;;
57107;SDS011;42987;52.916;6.542;2023-04-03T10:06:04;2.45;;;0.80;;
57107;SDS011;42987;52.916;6.542;2023-04-03T10:08:59;3.55;;;1.00;;
57107;SDS011;42987;52.916;6.542;2023-04-03T10:11:27;3.83;;;0.95;;
57107;SDS011;42987;52.916;6.542;2023-04-03T10:13:58;2.92;;;0.80;;
57107;SDS011;42987;52.916;6.542;2023-04-03T10:16:39;3.10;;;0.93;;
57107;SDS011;42987;52.916;6.542;2023-04-03T10:19:25;2.42;;;0.63;;
57107;SDS011;42987;52.916;6.542;2023-04-03T10:22:20;3.47;;;0.90;;
57107;SDS011;42987;52.916;6.542;2023-04-03T10:25:10;3.50;;;0.93;;
57107;SDS011;42987;52.916;6.542;2023-04-03T10:30:38;3.20;;;1.02;;
57107;SDS011;42987;52.916;6.542;2023-04-03T10:33:42;2.40;;;0.68;;
57107;SDS011;42987;52.916;6.542;2023-04-03T10:38:57;2.78;;;1.20;;
57107;SDS011;42987;52.916;6.542;2023-04-03T10:44:05;2.75;;;0.85;;
57107;SDS011;42987;52.916;6.542;2023-04-03T10:49:19;3.13;;;1.17;;
57107;SDS011;42987;52.916;6.542;2023-04-03T10:52:01;2.15;;;0.98;;
57107;SDS011;42987;52.916;6.542;2023-04-03T10:54:39;2.30;;;1.02;;
57107;SDS011;42987;52.916;6.542;2023-04-03T10:57:10;3.35;;;0.88;;
57107;SDS011;42987;52.916;6.542;2023-04-03T11:02:23;3.40;;;1.10;;
57107;SDS011;42987;52.916;6.542;2023-04-03T11:05:04;2.55;;;0.85;;
57107;SDS011;42987;52.916;6.542;2023-04-03T11:07:46;3.42;;;1.02;;
57107;SDS011;42987;52.916;6.542;2023-04-03T11:10:23;2.88;;;0.80;;
57107;SDS011;42987;52.916;6.542;2023-04-03T11:13:23;2.42;;;0.77;;
57107;SDS011;42987;52.916;6.542;2023-04-03T11:15:56;2.08;;;0.90;;
57107;SDS011;42987;52.916;6.542;2023-04-03T11:18:35;3.10;;;0.88;;
57107;SDS011;42987;52.916;6.542;2023-04-03T11:21:29;3.97;;;1.23;;
57107;SDS011;42987;52.916;6.542;2023-04-03T11:24:01;2.88;;;1.20;;
57107;SDS011;42987;52.916;6.542;2023-04-03T11:26:36;2.28;;;0.80;;
57107;SDS011;42987;52.916;6.542;2023-04-03T11:29:07;2.78;;;0.90;;
57107;SDS011;42987;52.916;6.542;2023-04-03T11:31:59;3.65;;;1.00;;
57107;SDS011;42987;52.916;6.542;2023-04-03T11:34:47;1.73;;;0.80;;
57107;SDS011;42987;52.916;6.542;2023-04-03T11:40:25;3.10;;;1.05;;
57107;SDS011;42987;52.916;6.542;2023-04-03T11:43:07;2.35;;;0.80;;
57107;SDS011;42987;52.916;6.542;2023-04-03T11:45:57;3.55;;;1.00;;
57107;SDS011;42987;52.916;6.542;2023-04-03T11:51:45;2.50;;;0.88;;
57107;SDS011;42987;52.916;6.542;2023-04-03T12:29:10;3.30;;;1.48;;
57107;SDS011;42987;52.916;6.542;2023-04-03T12:38:28;3.03;;;1.42;;
57107;SDS011;42987;52.916;6.542;2023-04-03T12:43:47;3.67;;;1.20;;
57107;SDS011;42987;52.916;6.542;2023-04-03T12:46:26;5.72;;;1.20;;
57107;SDS011;42987;52.916;6.542;2023-04-03T12:49:00;3.78;;;1.15;;
57107;SDS011;42987;52.916;6.542;2023-04-03T12:57:20;3.15;;;1.33;;
57107;SDS011;42987;52.916;6.542;2023-04-03T12:59:50;4.47;;;1.30;;
57107;SDS011;42987;52.916;6.542;2023-04-03T13:04:56;5.18;;;1.38;;
57107;SDS011;42987;52.916;6.542;2023-04-03T13:07:29;3.00;;;1.48;;
57107;SDS011;42987;52.916;6.542;2023-04-03T13:10:03;3.55;;;1.30;;
57107;SDS011;42987;52.916;6.542;2023-04-03T13:12:55;2.70;;;1.30;;
57107;SDS011;42987;52.916;6.542;2023-04-03T13:15:23;5.82;;;1.52;;
57107;SDS011;42987;52.916;6.542;2023-04-03T13:17:52;7.22;;;1.50;;
57107;SDS011;42987;52.916;6.542;2023-04-03T13:20:31;4.78;;;1.75;;
57107;SDS011;42987;52.916;6.542;2023-04-03T13:25:36;3.65;;;1.40;;
57107;SDS011;42987;52.916;6.542;2023-04-03T13:28:07;3.67;;;1.52;;
57107;SDS011;42987;52.916;6.542;2023-04-03T13:30:38;2.80;;;1.15;;
57107;SDS011;42987;52.916;6.542;2023-04-03T13:33:18;4.38;;;1.35;;
57107;SDS011;42987;52.916;6.542;2023-04-03T13:35:47;4.88;;;1.20;;
57107;SDS011;42987;52.916;6.542;2023-04-03T13:38:23;4.25;;;1.42;;
57107;SDS011;42987;52.916;6.542;2023-04-03T13:40:56;3.33;;;1.25;;
57107;SDS011;42987;52.916;6.542;2023-04-03T13:43:26;2.63;;;1.48;;
57107;SDS011;42987;52.916;6.542;2023-04-03T13:45:59;3.60;;;1.33;;
57107;SDS011;42987;52.916;6.542;2023-04-03T13:48:25;3.85;;;1.40;;
57107;SDS011;42987;52.916;6.542;2023-04-03T13:51:05;3.42;;;1.50;;
57107;SDS011;42987;52.916;6.542;2023-04-03T14:04:25;4.53;;;1.70;;
57107;SDS011;42987;52.916;6.542;2023-04-03T14:06:53;4.00;;;1.60;;
57107;SDS011;42987;52.916;6.542;2023-04-03T14:09:20;4.35;;;1.60;;
57107;SDS011;42987;52.916;6.542;2023-04-03T14:11:48;3.20;;;1.50;;
57107;SDS011;42987;52.916;6.542;2023-04-03T14:14:18;3.83;;;1.85;;
57107;SDS011;42987;52.916;6.542;2023-04-03T14:16:50;3.63;;;1.67;;
57107;SDS011;42987;52.916;6.542;2023-04-03T14:19:20;4.95;;;1.85;;
57107;SDS011;42987;52.916;6.542;2023-04-03T14:21:58;3.92;;;1.63;;
57107;SDS011;42987;52.916;6.542;2023-04-03T14:24:24;3.78;;;1.67;;
57107;SDS011;42987;52.916;6.542;2023-04-03T14:26:51;3.08;;;1.52;;
57107;SDS011;42987;52.916;6.542;2023-04-03T14:29:18;5.68;;;1.90;;
57107;SDS011;42987;52.916;6.542;2023-04-03T14:31:47;5.80;;;2.15;;
57107;SDS011;42987;52.916;6.542;2023-04-03T14:34:15;5.15;;;1.80;;
57107;SDS011;42987;52.916;6.542;2023-04-03T14:36:42;4.55;;;1.65;;
57107;SDS011;42987;52.916;6.542;2023-04-03T14:39:16;4.63;;;1.60;;
57107;SDS011;42987;52.916;6.542;2023-04-03T14:41:43;3.97;;;1.63;;
57107;SDS011;42987;52.916;6.542;2023-04-03T14:44:09;3.70;;;1.70;;
57107;SDS011;42987;52.916;6.542;2023-04-03T14:46:39;4.50;;;1.70;;
57107;SDS011;42987;52.916;6.542;2023-04-03T14:49:41;4.20;;;1.70;;
57107;SDS011;42987;52.916;6.542;2023-04-03T14:52:00;5.13;;;1.80;;
57107;SDS011;42987;52.916;6.542;2023-04-03T14:54:26;4.03;;;1.73;;
57107;SDS011;42987;52.916;6.542;2023-04-03T14:57:10;5.32;;;1.65;;
57107;SDS011;42987;52.916;6.542;2023-04-03T14:59:39;5.90;;;1.90;;
57107;SDS011;42987;52.916;6.542;2023-04-03T15:05:01;4.05;;;1.52;;
57107;SDS011;42987;52.916;6.542;2023-04-03T15:07:34;4.32;;;1.50;;
57107;SDS011;42987;52.916;6.542;2023-04-03T15:12:46;5.00;;;1.33;;
57107;SDS011;42987;52.916;6.542;2023-04-03T15:15:14;3.28;;;1.30;;
57107;SDS011;42987;52.916;6.542;2023-04-03T15:17:41;3.95;;;1.60;;
57107;SDS011;42987;52.916;6.542;2023-04-03T15:20:18;3.38;;;1.42;;
57107;SDS011;42987;52.916;6.542;2023-04-03T15:22:45;3.65;;;1.58;;
57107;SDS011;42987;52.916;6.542;2023-04-03T15:25:11;2.53;;;1.20;;
57107;SDS011;42987;52.916;6.542;2023-04-03T15:27:41;3.63;;;1.27;;
57107;SDS011;42987;52.916;6.542;2023-04-03T15:30:08;5.28;;;1.52;;
57107;SDS011;42987;52.916;6.542;2023-04-03T15:32:38;3.28;;;1.30;;
57107;SDS011;42987;52.916;6.542;2023-04-03T15:35:04;3.60;;;1.50;;
57107;SDS011;42987;52.916;6.542;2023-04-03T15:37:30;4.40;;;1.10;;
57107;SDS011;42987;52.916;6.542;2023-04-03T15:39:56;3.10;;;1.17;;
57107;SDS011;42987;52.916;6.542;2023-04-03T15:42:22;3.50;;;1.23;;
57107;SDS011;42987;52.916;6.542;2023-04-03T15:44:48;2.78;;;1.25;;
57107;SDS011;42987;52.916;6.542;2023-04-03T15:47:16;4.10;;;1.45;;
57107;SDS011;42987;52.916;6.542;2023-04-03T15:49:42;3.60;;;1.17;;
57107;SDS011;42987;52.916;6.542;2023-04-03T15:52:08;3.25;;;1.30;;
57107;SDS011;42987;52.916;6.542;2023-04-03T15:54:34;3.65;;;1.40;;
57107;SDS011;42987;52.916;6.542;2023-04-03T15:57:00;4.47;;;1.40;;
57107;SDS011;42987;52.916;6.542;2023-04-03T15:59:26;2.38;;;1.13;;
57107;SDS011;42987;52.916;6.542;2023-04-03T16:01:54;4.25;;;1.30;;
57107;SDS011;42987;52.916;6.542;2023-04-03T16:04:20;3.20;;;1.10;;
57107;SDS011;42987;52.916;6.542;2023-04-03T16:06:46;3.53;;;1.40;;
57107;SDS011;42987;52.916;6.542;2023-04-03T16:09:12;4.03;;;1.15;;
57107;SDS011;42987;52.916;6.542;2023-04-03T16:11:38;3.00;;;1.10;;
57107;SDS011;42987;52.916;6.542;2023-04-03T16:14:05;3.50;;;1.17;;
57107;SDS011;42987;52.916;6.542;2023-04-03T16:16:32;3.78;;;1.30;;
57107;SDS011;42987;52.916;6.542;2023-04-03T16:19:01;3.83;;;1.38;;
57107;SDS011;42987;52.916;6.542;2023-04-03T16:21:28;3.65;;;1.05;;
57107;SDS011;42987;52.916;6.542;2023-04-03T16:23:57;4.07;;;1.00;;
57107;SDS011;42987;52.916;6.542;2023-04-03T16:26:24;3.53;;;1.05;;
57107;SDS011;42987;52.916;6.542;2023-04-03T16:28:50;3.45;;;1.40;;
57107;SDS011;42987;52.916;6.542;2023-04-03T16:31:17;3.92;;;1.33;;
57107;SDS011;42987;52.916;6.542;2023-04-03T16:33:42;2.70;;;1.10;;
57107;SDS011;42987;52.916;6.542;2023-04-03T16:36:08;3.05;;;1.10;;
57107;SDS011;42987;52.916;6.542;2023-04-03T16:38:35;2.58;;;1.08;;
57107;SDS011;42987;52.916;6.542;2023-04-03T16:41:01;3.75;;;1.55;;
57107;SDS011;42987;52.916;6.542;2023-04-03T16:43:30;3.08;;;1.27;;
57107;SDS011;42987;52.916;6.542;2023-04-03T16:45:57;3.78;;;1.15;;
57107;SDS011;42987;52.916;6.542;2023-04-03T16:48:23;3.15;;;1.40;;
57107;SDS011;42987;52.916;6.542;2023-04-03T16:50:49;4.78;;;1.55;;
57107;SDS011;42987;52.916;6.542;2023-04-03T16:53:19;4.05;;;1.60;;
57107;SDS011;42987;52.916;6.542;2023-04-03T16:55:48;4.15;;;1.42;;
57107;SDS011;42987;52.916;6.542;2023-04-03T16:58:15;2.50;;;1.20;;
57107;SDS011;42987;52.916;6.542;2023-04-03T17:00:41;3.08;;;1.42;;
57107;SDS011;42987;52.916;6.542;2023-04-03T17:03:07;2.95;;;1.20;;
57107;SDS011;42987;52.916;6.542;2023-04-03T17:05:33;3.92;;;1.40;;
57107;SDS011;42987;52.916;6.542;2023-04-03T17:08:02;4.07;;;1.75;;